createdAt,value
2019-02-04T00:02:25.221Z,-0.30
2019-02-04T00:04:54.965Z,-0.30
2019-02-04T00:07:24.591Z,-0.40
2019-02-04T00:09:54.328Z,-0.40
2019-02-04T00:12:25.066Z,-0.30
2019-02-04T00:14:54.845Z,-0.20
2019-02-04T00:17:24.651Z,-0.30
2019-02-04T00:19:54.641Z,-0.20
2019-02-04T00:22:24.382Z,-0.20
2019-02-04T00:24:54.071Z,-0.10
2019-02-04T00:27:23.714Z,0.00
2019-02-04T00:29:53.361Z,0.10
2019-02-04T00:32:24.180Z,0.10
2019-02-04T00:34:54.892Z,0.00
2019-02-04T00:37:24.650Z,0.00
2019-02-04T00:39:56.384Z,0.00
2019-02-04T00:42:26.209Z,-0.10
2019-02-04T00:44:56.109Z,-0.20
2019-02-04T00:47:26.140Z,-0.20
2019-02-04T00:49:56.813Z,-0.20
2019-02-04T00:52:26.537Z,-0.20
2019-02-04T00:54:56.413Z,-0.20
2019-02-04T00:57:26.114Z,-0.20
2019-02-04T00:59:55.793Z,-0.30
2019-02-04T01:02:25.627Z,-0.30
2019-02-04T01:04:56.277Z,-0.30
2019-02-04T01:07:25.963Z,-0.30
2019-02-04T01:09:55.793Z,-0.30
2019-02-04T01:12:25.459Z,-0.30
2019-02-04T01:14:55.643Z,-0.40
2019-02-04T01:17:25.470Z,-0.40
2019-02-04T01:19:55.394Z,-0.30
2019-02-04T01:22:26.206Z,-0.30
2019-02-04T01:24:56.811Z,-0.40
2019-02-04T01:27:26.711Z,-0.30
2019-02-04T01:29:56.483Z,-0.30
2019-02-04T01:32:26.305Z,-0.30
2019-02-04T01:34:56.133Z,-0.30
2019-02-04T01:37:25.879Z,-0.30
2019-02-04T01:40:00.224Z,-0.20
2019-02-04T01:42:30.880Z,-0.30
2019-02-04T01:45:00.801Z,-0.30
2019-02-04T01:47:30.567Z,-0.30
2019-02-04T01:50:01.260Z,-0.30
2019-02-04T01:52:31.028Z,-0.30
2019-02-04T01:55:00.716Z,-0.30
2019-02-04T01:57:30.410Z,-0.20
2019-02-04T02:00:00.321Z,-0.20
2019-02-04T02:02:30.353Z,-0.30
2019-02-04T02:05:00.098Z,-0.30
2019-02-04T02:07:32.319Z,-0.30
2019-02-04T02:10:02.288Z,-0.30
2019-02-04T02:12:32.122Z,-0.20
2019-02-04T02:15:01.903Z,-0.20
2019-02-04T02:17:31.924Z,-0.20
2019-02-04T02:20:01.643Z,-0.10
2019-02-04T02:22:31.545Z,-0.10
2019-02-04T02:25:01.277Z,-0.10
2019-02-04T02:27:30.956Z,0.00
2019-02-04T02:30:01.032Z,0.00
2019-02-04T02:32:30.779Z,0.00
2019-02-04T02:35:00.879Z,-0.10
2019-02-04T02:37:31.559Z,-0.20
2019-02-04T02:40:01.463Z,-0.30
2019-02-04T02:42:31.137Z,-0.30
2019-02-04T02:45:00.897Z,-0.30
2019-02-04T02:47:38.213Z,-0.30
2019-02-04T02:50:02.307Z,-0.30
2019-02-04T02:52:34.048Z,-0.30
2019-02-04T02:55:04.528Z,-0.30
2019-02-04T02:57:34.286Z,-0.30
2019-02-04T03:00:07.506Z,-0.30
2019-02-04T03:02:37.376Z,-0.20
2019-02-04T03:05:10.479Z,-0.20
2019-02-04T03:07:40.892Z,-0.30
2019-02-04T03:10:14.025Z,-0.30
2019-02-04T03:12:43.811Z,-0.30
2019-02-04T03:15:13.885Z,-0.30
2019-02-04T03:17:51.377Z,-0.30
2019-02-04T03:20:15.707Z,-0.30
2019-02-04T03:22:45.486Z,-0.40
2019-02-04T03:25:16.217Z,-0.50
2019-02-04T03:27:46.003Z,-0.40
2019-02-04T03:30:30.732Z,-0.50
2019-02-04T03:33:01.510Z,-0.50
2019-02-04T03:35:31.517Z,-0.60
2019-02-04T03:38:01.644Z,-0.50
2019-02-04T03:40:32.416Z,-0.60
2019-02-04T03:43:02.221Z,-0.60
2019-02-04T03:45:32.045Z,-0.60
2019-02-04T03:48:05.404Z,-0.60
2019-02-04T03:50:33.664Z,-0.50
2019-02-04T03:53:03.471Z,-0.60
2019-02-04T03:55:33.242Z,-0.60
2019-02-04T03:58:04.208Z,-0.60
2019-02-04T04:00:35.695Z,-0.60
2019-02-04T04:03:05.651Z,-0.70
2019-02-04T04:05:35.468Z,-0.70
2019-02-04T04:08:06.055Z,-0.80
2019-02-04T04:10:35.897Z,-0.80
2019-02-04T04:13:05.588Z,-0.80
2019-02-04T04:15:35.428Z,-0.90
2019-02-04T04:18:15.364Z,-1.00
2019-02-04T04:20:37.023Z,-1.00
2019-02-04T04:23:06.797Z,-1.10
2019-02-04T04:25:36.615Z,-1.10
2019-02-04T04:28:06.385Z,-1.20
2019-02-04T04:30:36.170Z,-1.20
2019-02-04T04:33:06.011Z,-1.20
2019-02-04T04:35:36.948Z,-1.10
2019-02-04T04:38:06.803Z,-1.00
2019-02-04T04:40:36.624Z,-1.00
2019-02-04T04:43:06.429Z,-1.00
2019-02-04T04:45:36.373Z,-1.00
2019-02-04T04:48:06.215Z,-0.90
2019-02-04T04:50:36.085Z,-0.90
2019-02-04T04:53:05.876Z,-0.90
2019-02-04T04:55:35.704Z,-1.10
2019-02-04T04:58:05.704Z,-1.10
2019-02-04T05:00:35.385Z,-1.10
2019-02-04T05:03:05.215Z,-1.00
2019-02-04T05:05:35.078Z,-1.00
2019-02-04T05:08:05.097Z,-1.00
2019-02-04T05:10:34.921Z,-1.00
2019-02-04T05:13:05.046Z,-1.00
2019-02-04T05:15:34.730Z,-1.00
2019-02-04T05:18:04.558Z,-1.00
2019-02-04T05:20:34.324Z,-0.90
2019-02-04T05:23:04.083Z,-0.80
2019-02-04T05:25:35.017Z,-0.80
2019-02-04T05:28:04.685Z,-0.80
2019-02-04T05:30:34.567Z,-0.80
2019-02-04T05:33:04.614Z,-0.80
2019-02-04T05:35:34.423Z,-0.80
2019-02-04T05:38:04.441Z,-0.90
2019-02-04T05:40:34.254Z,-0.90
2019-02-04T05:43:04.166Z,-0.90
2019-02-04T05:45:34.797Z,-0.80
2019-02-04T05:48:04.611Z,-0.90
2019-02-04T05:50:34.385Z,-0.90
2019-02-04T05:53:04.602Z,-0.90
2019-02-04T05:55:34.422Z,-0.90
2019-02-04T05:58:05.130Z,-0.90
2019-02-04T06:00:37.350Z,-1.00
2019-02-04T06:03:07.140Z,-1.00
2019-02-04T06:05:36.902Z,-1.10
2019-02-04T06:08:06.746Z,-1.00
2019-02-04T06:10:37.567Z,-1.00
2019-02-04T06:13:08.319Z,-0.90
2019-02-04T06:15:38.128Z,-0.90
2019-02-04T06:18:07.960Z,-0.80
2019-02-04T06:20:38.302Z,-0.80
2019-02-04T06:23:07.971Z,-0.70
2019-02-04T06:25:37.713Z,-0.70
2019-02-04T06:28:08.366Z,-0.80
2019-02-04T06:30:38.219Z,-0.80
2019-02-04T06:33:08.929Z,-0.80
2019-02-04T06:35:38.737Z,-0.80
2019-02-04T06:38:08.506Z,-0.80
2019-02-04T06:40:38.292Z,-0.70
2019-02-04T06:43:07.965Z,-0.70
2019-02-04T06:45:37.972Z,-0.60
2019-02-04T06:48:08.145Z,-0.70
2019-02-04T06:50:37.970Z,-0.70
2019-02-04T06:53:07.690Z,-0.70
2019-02-04T06:55:37.375Z,-0.70
2019-02-04T06:58:07.141Z,-0.70
2019-02-04T07:00:36.966Z,-0.60
2019-02-04T07:03:06.833Z,-0.50
2019-02-04T07:05:43.464Z,-0.60
2019-02-04T07:08:08.252Z,-0.50
2019-02-04T07:10:38.065Z,-0.50
2019-02-04T07:13:08.132Z,-0.40
2019-02-04T07:15:39.166Z,-0.30
2019-02-04T07:18:09.418Z,-0.30
2019-02-04T07:20:39.202Z,-0.20
2019-02-04T07:23:08.890Z,0.00
2019-02-04T07:25:38.816Z,0.00
2019-02-04T07:28:08.571Z,0.20
2019-02-04T07:30:38.640Z,0.20
2019-02-04T07:33:08.480Z,0.20
2019-02-04T07:35:38.498Z,0.00
2019-02-04T07:38:08.240Z,-0.10
2019-02-04T07:40:38.074Z,-0.20
2019-02-04T07:43:07.828Z,-0.30
2019-02-04T07:45:37.695Z,-0.30
2019-02-04T07:48:07.507Z,-0.40
2019-02-04T07:50:37.273Z,-0.50
2019-02-04T07:53:07.083Z,-0.50
2019-02-04T07:55:36.950Z,-0.50
2019-02-04T07:58:07.375Z,-0.60
2019-02-04T08:00:37.100Z,-0.60
2019-02-04T08:03:06.832Z,-0.50
2019-02-04T08:05:36.565Z,-0.50
2019-02-04T08:08:06.515Z,-0.50
2019-02-04T08:10:36.159Z,-0.50
2019-02-04T08:13:06.081Z,-0.40
2019-02-04T08:15:37.968Z,-0.30
2019-02-04T08:18:07.930Z,-0.30
2019-02-04T08:20:37.730Z,-0.20
2019-02-04T08:23:07.568Z,-0.10
2019-02-04T08:25:37.674Z,0.00
2019-02-04T08:28:07.426Z,0.20
2019-02-04T08:30:38.589Z,0.30
2019-02-04T08:33:08.535Z,0.40
2019-02-04T08:35:38.306Z,0.40
2019-02-04T08:38:08.112Z,0.40
2019-02-04T08:40:38.145Z,0.40
2019-02-04T08:43:07.999Z,0.40
2019-02-04T08:45:37.802Z,0.40
2019-02-04T08:48:07.463Z,0.40
2019-02-04T08:50:37.349Z,0.40
2019-02-04T08:53:07.148Z,0.50
2019-02-04T08:55:37.183Z,0.60
2019-02-04T08:58:07.324Z,0.60
2019-02-04T09:00:37.394Z,0.60
2019-02-04T09:03:07.199Z,0.70
2019-02-04T09:05:36.915Z,0.60
2019-02-04T09:08:06.653Z,0.50
2019-02-04T09:10:36.671Z,0.20
2019-02-04T09:13:06.449Z,0.10
2019-02-04T09:15:36.214Z,0.10
2019-02-04T09:18:06.011Z,0.20
2019-02-04T09:20:35.754Z,0.30
2019-02-04T09:23:06.615Z,0.20
2019-02-04T09:25:36.772Z,0.10
2019-02-04T09:28:06.655Z,0.20
2019-02-04T09:30:36.421Z,0.30
2019-02-04T09:33:06.231Z,0.30
2019-02-04T09:35:36.221Z,0.40
2019-02-04T09:38:06.018Z,0.50
2019-02-04T09:40:40.731Z,0.50
2019-02-04T09:43:10.454Z,0.50
2019-02-04T09:45:40.683Z,0.50
2019-02-04T09:48:13.425Z,0.60
2019-02-04T09:50:45.779Z,0.70
2019-02-04T09:53:16.628Z,0.80
2019-02-04T09:55:46.365Z,0.80
2019-02-04T09:58:16.008Z,0.80
2019-02-04T10:00:46.206Z,0.80
2019-02-04T10:03:18.920Z,1.00
2019-02-04T10:05:48.946Z,1.00
2019-02-04T10:08:18.713Z,1.00
2019-02-04T10:10:48.393Z,1.10
2019-02-04T10:13:18.170Z,1.00
2019-02-04T10:15:47.938Z,1.00
2019-02-04T10:18:17.696Z,0.90
2019-02-04T10:20:47.489Z,1.00
2019-02-04T10:23:17.377Z,0.90
2019-02-04T10:25:47.183Z,0.90
2019-02-04T10:28:17.018Z,0.80
2019-02-04T10:30:46.895Z,0.80
2019-02-04T10:33:16.824Z,0.90
2019-02-04T10:35:46.627Z,0.90
2019-02-04T10:38:16.812Z,0.90
2019-02-04T10:40:46.712Z,1.00
2019-02-04T10:43:16.732Z,1.00
2019-02-04T10:45:46.398Z,1.10
2019-02-04T10:48:16.181Z,1.20
2019-02-04T10:50:47.005Z,1.30
2019-02-04T10:53:17.293Z,1.20
2019-02-04T10:55:47.072Z,1.10
2019-02-04T10:58:16.920Z,1.10
2019-02-04T11:00:47.039Z,1.10
2019-02-04T11:03:16.702Z,1.30
2019-02-04T11:05:48.139Z,1.30
2019-02-04T11:08:17.926Z,1.10
2019-02-04T11:10:47.775Z,0.80
2019-02-04T11:13:18.031Z,1.00
2019-02-04T11:15:48.285Z,1.20
2019-02-04T11:18:19.086Z,1.30
2019-02-04T11:20:57.565Z,1.50
2019-02-04T11:23:20.463Z,1.50
2019-02-04T11:25:50.265Z,1.60
2019-02-04T11:28:20.327Z,1.50
2019-02-04T11:30:55.585Z,1.60
2019-02-04T11:33:26.793Z,1.60
2019-02-04T11:35:57.520Z,1.80
2019-02-04T11:38:27.250Z,2.00
2019-02-04T11:40:57.370Z,2.40
2019-02-04T11:43:27.202Z,2.60
2019-02-04T11:45:56.972Z,2.90
2019-02-04T11:48:26.659Z,2.90
2019-02-04T11:50:56.475Z,3.10
2019-02-04T11:53:33.168Z,3.30
2019-02-04T11:55:57.660Z,3.30
2019-02-04T11:58:28.478Z,3.20
2019-02-04T12:00:58.959Z,3.00
2019-02-04T12:03:28.762Z,3.20
2019-02-04T12:05:58.454Z,3.40
2019-02-04T12:08:28.573Z,3.40
2019-02-04T12:11:01.415Z,3.30
2019-02-04T12:13:31.147Z,3.30
2019-02-04T12:16:00.882Z,3.30
2019-02-04T12:18:30.636Z,3.30
2019-02-04T12:21:00.531Z,3.40
2019-02-04T12:23:30.535Z,3.40
2019-02-04T12:26:00.198Z,3.10
2019-02-04T12:28:29.950Z,2.90
2019-02-04T12:30:59.740Z,2.90
2019-02-04T12:33:29.571Z,2.80
2019-02-04T12:36:02.035Z,2.80
2019-02-04T12:38:31.014Z,2.90
2019-02-04T12:41:00.882Z,3.00
2019-02-04T12:43:30.597Z,3.00
2019-02-04T12:46:00.246Z,2.80
2019-02-04T12:48:30.003Z,2.60
2019-02-04T12:50:59.730Z,2.50
2019-02-04T12:53:29.428Z,2.30
2019-02-04T12:55:59.191Z,2.10
2019-02-04T12:58:29.164Z,1.70
2019-02-04T13:01:00.880Z,1.80
2019-02-04T13:03:31.030Z,1.70
2019-02-04T13:06:00.845Z,1.60
2019-02-04T13:08:30.544Z,1.70
2019-02-04T13:11:00.283Z,1.70
2019-02-04T13:13:29.985Z,1.70
2019-02-04T13:16:00.797Z,1.60
2019-02-04T13:18:31.600Z,1.70
2019-02-04T13:21:01.398Z,1.60
2019-02-04T13:23:31.183Z,1.40
2019-02-04T13:26:01.842Z,1.40
2019-02-04T13:28:31.643Z,1.20
2019-02-04T13:31:01.789Z,1.20
2019-02-04T13:33:37.099Z,1.20
2019-02-04T13:36:06.822Z,1.40
2019-02-04T13:38:36.427Z,1.60
2019-02-04T13:41:08.042Z,1.50
2019-02-04T13:43:37.784Z,1.80
2019-02-04T13:46:07.519Z,2.00
2019-02-04T13:48:37.205Z,1.70
2019-02-04T13:51:07.865Z,1.50
2019-02-04T13:53:37.630Z,1.60
2019-02-04T13:56:07.363Z,1.50
2019-02-04T13:58:37.067Z,1.40
2019-02-04T14:01:06.758Z,1.30
2019-02-04T14:03:36.516Z,1.30
2019-02-04T14:06:08.902Z,1.30
2019-02-04T14:08:38.751Z,1.10
2019-02-04T14:11:08.901Z,1.10
2019-02-04T14:13:38.701Z,1.20
2019-02-04T14:16:08.440Z,1.30
2019-02-04T14:18:38.222Z,1.30
2019-02-04T14:21:08.783Z,1.40
2019-02-04T14:23:38.723Z,1.40
2019-02-04T14:26:09.530Z,1.30
2019-02-04T14:28:40.276Z,1.20
2019-02-04T14:31:10.091Z,1.20
2019-02-04T14:33:39.761Z,1.10
2019-02-04T14:36:10.350Z,1.10
2019-02-04T14:38:40.182Z,1.00
2019-02-04T14:41:10.008Z,1.00
2019-02-04T14:43:42.705Z,1.00
2019-02-04T14:46:21.455Z,1.00
2019-02-04T14:49:11.103Z,1.00
2019-02-04T14:51:43.828Z,0.90
2019-02-04T14:54:19.313Z,0.90
2019-02-04T14:56:58.294Z,0.90
2019-02-04T14:59:29.624Z,0.90
2019-02-04T15:02:08.978Z,1.00
2019-02-04T15:04:56.642Z,1.00
2019-02-04T15:07:44.051Z,1.00
2019-02-04T15:10:21.338Z,1.00
2019-02-04T15:13:23.910Z,1.00
2019-02-04T15:16:02.426Z,1.00
2019-02-04T15:18:57.313Z,1.00
2019-02-04T15:21:38.927Z,1.00
2019-02-04T15:24:14.572Z,1.00
2019-02-04T15:27:21.679Z,1.00
2019-02-04T15:29:54.782Z,0.90
2019-02-04T15:32:30.011Z,0.70
2019-02-04T15:35:04.520Z,0.60
2019-02-04T15:38:03.616Z,0.50
2019-02-04T15:40:54.039Z,0.40
2019-02-04T15:43:42.843Z,0.20
2019-02-04T15:46:18.471Z,0.20
2019-02-04T15:49:08.591Z,0.00
2019-02-04T15:51:40.281Z,-0.10
2019-02-04T15:54:10.076Z,-0.40
2019-02-04T15:56:39.777Z,-0.40
2019-02-04T15:59:09.624Z,-0.50
2019-02-04T16:01:40.430Z,-0.60
2019-02-04T16:04:30.303Z,-0.60
2019-02-04T16:07:01.135Z,-0.60
2019-02-04T16:09:31.149Z,-0.80
2019-02-04T16:12:01.161Z,-0.70
2019-02-04T16:14:31.310Z,-0.80
2019-02-04T16:17:01.230Z,-0.80
2019-02-04T16:19:31.116Z,-0.80
2019-02-04T16:22:00.717Z,-0.80
2019-02-04T16:24:30.559Z,-0.90
2019-02-04T16:27:01.177Z,-1.00
2019-02-04T16:29:33.149Z,-1.10
2019-02-04T16:32:02.968Z,-1.10
2019-02-04T16:34:32.632Z,-1.10
2019-02-04T16:37:02.492Z,-1.10
2019-02-04T16:39:32.228Z,-1.10
2019-02-04T16:42:02.160Z,-1.10
2019-02-04T16:44:31.981Z,-1.10
2019-02-04T16:47:01.623Z,-0.90
2019-02-04T16:49:31.338Z,-0.80
2019-02-04T16:52:02.768Z,-0.70
2019-02-04T16:54:32.854Z,-0.80
2019-02-04T16:57:04.038Z,-0.70
2019-02-04T16:59:33.776Z,-0.60
2019-02-04T17:02:04.397Z,-0.60
2019-02-04T17:04:34.140Z,-0.60
2019-02-04T17:07:05.725Z,-0.70
2019-02-04T17:09:35.496Z,-0.70
2019-02-04T17:12:05.317Z,-0.70
2019-02-04T17:14:34.942Z,-0.70
2019-02-04T17:17:04.876Z,-0.70
2019-02-04T17:19:34.825Z,-0.80
2019-02-04T17:22:05.909Z,-0.70
2019-02-04T17:24:36.056Z,-0.70
2019-02-04T17:27:05.893Z,-0.70
2019-02-04T17:29:35.645Z,-0.70
2019-02-04T17:32:05.710Z,-0.60
2019-02-04T17:34:35.406Z,-0.60
2019-02-04T17:37:05.322Z,-0.70
2019-02-04T17:39:35.406Z,-0.60
2019-02-04T17:42:05.557Z,-0.70
2019-02-04T17:44:35.291Z,-0.70
2019-02-04T17:47:05.091Z,-0.70
2019-02-04T17:49:34.780Z,-0.60
2019-02-04T17:52:04.646Z,-0.60
2019-02-04T17:54:34.294Z,-0.50
2019-02-04T17:57:06.091Z,-0.50
2019-02-04T17:59:36.101Z,-0.50
2019-02-04T18:02:06.257Z,-0.50
2019-02-04T18:04:36.954Z,-0.50
2019-02-04T18:07:06.995Z,-0.40
2019-02-04T18:09:36.764Z,-0.40
2019-02-04T18:12:07.564Z,-0.40
2019-02-04T18:14:37.362Z,-0.40
2019-02-04T18:17:07.124Z,-0.40
2019-02-04T18:19:36.809Z,-0.40
2019-02-04T18:22:17.337Z,-0.40
2019-02-04T18:24:47.174Z,-0.50
2019-02-04T18:27:17.051Z,-0.50
2019-02-04T18:29:46.781Z,-0.60
2019-02-04T18:32:16.829Z,-0.60
2019-02-04T18:34:46.593Z,-0.60
2019-02-04T18:37:16.489Z,-0.60
2019-02-04T18:39:47.366Z,-0.60
2019-02-04T18:42:17.371Z,-0.60
2019-02-04T18:44:47.547Z,-0.60
2019-02-04T18:47:17.537Z,-0.70
2019-02-04T18:49:47.285Z,-0.80
2019-02-04T18:52:17.027Z,-0.80
2019-02-04T18:54:47.166Z,-0.90
2019-02-04T18:57:17.128Z,-1.00
2019-02-04T18:59:47.806Z,-1.10
2019-02-04T19:02:17.577Z,-1.20
2019-02-04T19:04:49.175Z,-1.20
2019-02-04T19:07:19.797Z,-1.30
2019-02-04T19:09:49.662Z,-1.40
2019-02-04T19:12:19.604Z,-1.50
2019-02-04T19:14:49.363Z,-1.50
2019-02-04T19:17:19.293Z,-1.40
2019-02-04T19:19:48.979Z,-1.40
2019-02-04T19:22:18.836Z,-1.40
2019-02-04T19:24:48.681Z,-1.50
2019-02-04T19:27:18.351Z,-1.60
2019-02-04T19:29:48.123Z,-1.70
2019-02-04T19:32:17.899Z,-1.80
2019-02-04T19:34:47.603Z,-1.80
2019-02-04T19:37:17.357Z,-1.80
2019-02-04T19:39:47.424Z,-1.90
2019-02-04T19:42:17.873Z,-1.90
2019-02-04T19:44:47.653Z,-2.00
2019-02-04T19:47:17.521Z,-2.10
2019-02-04T19:49:47.339Z,-2.10
2019-02-04T19:52:17.127Z,-2.10
2019-02-04T19:54:47.162Z,-2.20
2019-02-04T19:57:16.866Z,-2.20
2019-02-04T19:59:46.551Z,-2.10
2019-02-04T20:02:16.339Z,-2.10
2019-02-04T20:04:46.079Z,-2.20
2019-02-04T20:07:15.873Z,-2.20
2019-02-04T20:09:45.803Z,-2.20
2019-02-04T20:12:15.760Z,-2.30
2019-02-04T20:14:45.533Z,-2.30
2019-02-04T20:17:15.161Z,-2.30
2019-02-04T20:19:44.934Z,-2.40
2019-02-04T20:22:14.872Z,-2.50
2019-02-04T20:24:45.565Z,-2.50
2019-02-04T20:27:15.347Z,-2.60
2019-02-04T20:29:45.053Z,-2.60
2019-02-04T20:32:14.935Z,-2.70
2019-02-04T20:34:44.762Z,-2.70
2019-02-04T20:37:14.960Z,-2.70
2019-02-04T20:39:44.972Z,-2.70
2019-02-04T20:42:14.830Z,-2.70
2019-02-04T20:44:44.587Z,-2.70
2019-02-04T20:47:14.479Z,-2.70
2019-02-04T20:49:44.175Z,-2.60
2019-02-04T20:52:14.303Z,-2.60
2019-02-04T20:54:45.255Z,-2.60
2019-02-04T20:57:15.264Z,-2.50
2019-02-04T20:59:44.912Z,-2.50
2019-02-04T21:02:14.770Z,-2.50
2019-02-04T21:04:44.629Z,-2.40
2019-02-04T21:07:14.527Z,-2.40
2019-02-04T21:09:44.313Z,-2.40
2019-02-04T21:12:14.099Z,-2.40
2019-02-04T21:14:43.756Z,-2.30
2019-02-04T21:17:14.304Z,-2.30
2019-02-04T21:19:44.275Z,-2.20
2019-02-04T21:22:14.948Z,-2.20
2019-02-04T21:24:56.096Z,-2.10
2019-02-04T21:27:16.065Z,-2.10
2019-02-04T21:29:48.087Z,-2.20
2019-02-04T21:32:17.891Z,-2.10
2019-02-04T21:34:47.917Z,-2.10
2019-02-04T21:37:17.535Z,-2.10
2019-02-04T21:39:47.206Z,-2.10
2019-02-04T21:42:17.058Z,-2.00
2019-02-04T21:44:46.731Z,-2.00
2019-02-04T21:47:16.401Z,-2.10
2019-02-04T21:49:46.141Z,-2.10
2019-02-04T21:52:15.851Z,-2.10
2019-02-04T21:54:45.550Z,-2.10
2019-02-04T21:57:15.222Z,-2.20
2019-02-04T21:59:44.852Z,-2.20
2019-02-04T22:02:14.626Z,-2.30
2019-02-04T22:04:44.266Z,-2.30
2019-02-04T22:07:14.014Z,-2.30
2019-02-04T22:09:43.785Z,-2.40
2019-02-04T22:12:13.851Z,-2.50
2019-02-04T22:14:43.594Z,-2.50
2019-02-04T22:17:13.739Z,-2.60
2019-02-04T22:19:43.497Z,-2.60
2019-02-04T22:22:13.254Z,-2.60
2019-02-04T22:24:43.007Z,-2.70
2019-02-04T22:27:13.585Z,-2.70
2019-02-04T22:29:43.405Z,-2.70
2019-02-04T22:32:13.103Z,-2.80
2019-02-04T22:34:45.591Z,-2.70
2019-02-04T22:37:14.490Z,-2.70
2019-02-04T22:39:44.348Z,-2.70
2019-02-04T22:42:14.078Z,-2.80
2019-02-04T22:44:43.842Z,-2.80
2019-02-04T22:47:13.865Z,-2.80
2019-02-04T22:49:43.535Z,-2.80
2019-02-04T22:52:13.275Z,-2.80
2019-02-04T22:54:42.959Z,-2.80
2019-02-04T22:57:12.709Z,-2.80
2019-02-04T22:59:42.472Z,-2.80
2019-02-04T23:02:12.884Z,-2.80
2019-02-04T23:04:42.730Z,-2.90
2019-02-04T23:07:12.553Z,-2.90
2019-02-04T23:09:42.475Z,-2.90
2019-02-04T23:12:12.501Z,-2.90
2019-02-04T23:14:42.203Z,-2.90
2019-02-04T23:17:12.096Z,-2.80
2019-02-04T23:19:41.918Z,-2.90
2019-02-04T23:22:11.728Z,-3.00
2019-02-04T23:24:41.421Z,-3.00
2019-02-04T23:27:11.116Z,-3.10
2019-02-04T23:29:41.160Z,-3.10
2019-02-04T23:32:10.772Z,-3.10
2019-02-04T23:34:40.534Z,-3.10
2019-02-04T23:37:10.454Z,-3.00
2019-02-04T23:39:40.200Z,-3.00
2019-02-04T23:42:10.022Z,-2.90
2019-02-04T23:44:39.710Z,-2.80
2019-02-04T23:47:09.608Z,-2.80
2019-02-04T23:49:39.439Z,-2.90
2019-02-04T23:52:09.189Z,-2.90
2019-02-04T23:54:38.889Z,-2.90
2019-02-04T23:57:09.185Z,-2.90
2019-02-04T23:59:39.928Z,-2.90
